createdAt,value
2023-02-11T00:00:30.068Z,102528.38
2023-02-11T00:02:59.945Z,102648.50
2023-02-11T00:05:29.667Z,102575.63
2023-02-11T00:07:59.372Z,102450.09
2023-02-11T00:10:29.055Z,102611.78
2023-02-11T00:13:01.406Z,102617.78
2023-02-11T00:15:31.109Z,102552.59
2023-02-11T00:18:00.874Z,102576.75
2023-02-11T00:20:30.572Z,102474.59
2023-02-11T00:23:00.464Z,102448.31
2023-02-11T00:25:30.234Z,102583.50
2023-02-11T00:28:03.153Z,102506.16
2023-02-11T00:30:33.397Z,102584.66
2023-02-11T00:33:03.724Z,102308.13
2023-02-11T00:35:35.382Z,102417.78
2023-02-11T00:38:05.115Z,102607.31
2023-02-11T00:40:34.885Z,102571.78
2023-02-11T00:43:09.289Z,102466.91
2023-02-11T00:45:39.044Z,102525.28
2023-02-11T00:48:09.207Z,102533.00
2023-02-11T00:50:39.878Z,102341.53
2023-02-11T00:53:09.937Z,102458.44
2023-02-11T00:55:42.322Z,102493.66
2023-02-11T00:58:15.018Z,102434.91
2023-02-11T01:00:46.035Z,102306.81
2023-02-11T01:03:17.007Z,102529.47
2023-02-11T01:05:47.490Z,102473.84
2023-02-11T01:08:17.523Z,102515.28
2023-02-11T01:10:48.117Z,102559.81
2023-02-11T01:13:20.931Z,102373.69
2023-02-11T01:15:51.256Z,102451.63
2023-02-11T01:18:21.749Z,102592.03
2023-02-11T01:20:53.467Z,102572.69
2023-02-11T01:23:23.721Z,102595.72
2023-02-11T01:25:54.539Z,102571.56
2023-02-11T01:28:28.806Z,102621.41
2023-02-11T01:30:59.880Z,102475.38
2023-02-11T01:33:29.803Z,102424.47
2023-02-11T01:36:03.485Z,102332.72
2023-02-11T01:38:34.236Z,102430.84
2023-02-11T01:41:05.780Z,102616.31
2023-02-11T01:43:41.076Z,102297.38
2023-02-11T01:46:34.206Z,102429.09
2023-02-11T01:49:08.941Z,102493.28
2023-02-11T01:51:43.336Z,102528.38
2023-02-11T01:54:38.138Z,102595.28
2023-02-11T01:57:22.277Z,102473.09
2023-02-11T02:00:04.570Z,102605.28
2023-02-11T02:02:51.284Z,102503.00
2023-02-11T02:05:28.004Z,102567.06
2023-02-11T02:08:07.828Z,102513.50
2023-02-11T02:10:40.610Z,102563.38
2023-02-11T02:13:10.420Z,102561.81
2023-02-11T02:15:50.306Z,102424.91
2023-02-11T02:18:33.849Z,102458.31
2023-02-11T02:21:25.347Z,102554.63
2023-02-11T02:24:27.990Z,102524.22
2023-02-11T02:27:18.628Z,102537.41
2023-02-11T02:30:19.675Z,102363.59
2023-02-11T02:33:21.835Z,102437.81
2023-02-11T02:36:01.106Z,102505.50
2023-02-11T02:38:34.490Z,102499.75
2023-02-11T02:41:09.727Z,102424.19
2023-02-11T02:43:51.444Z,102381.06
2023-02-11T02:46:24.136Z,102345.34
2023-02-11T02:48:58.464Z,102507.41
2023-02-11T02:51:50.418Z,102502.34
2023-02-11T02:54:45.269Z,102401.47
2023-02-11T02:57:30.347Z,102472.63
2023-02-11T03:00:20.075Z,102475.75
2023-02-11T03:03:08.094Z,102336.75
2023-02-11T03:05:53.188Z,102336.03
2023-02-11T03:08:30.313Z,102352.56
2023-02-11T03:11:02.552Z,102329.94
2023-02-11T03:13:36.113Z,102362.66
2023-02-11T03:16:18.150Z,102333.59
2023-02-11T03:19:01.178Z,102257.91
2023-02-11T03:21:54.968Z,102400.91
2023-02-11T03:24:42.462Z,102166.47
2023-02-11T03:27:31.922Z,102359.56
2023-02-11T03:30:15.857Z,102353.84
2023-02-11T03:32:53.264Z,102342.13
2023-02-11T03:35:32.331Z,102433.22
2023-02-11T03:38:13.082Z,102157.44
2023-02-11T03:40:46.491Z,102290.00
2023-02-11T03:43:21.552Z,102271.25
2023-02-11T03:45:58.828Z,102337.63
2023-02-11T03:48:34.270Z,102443.22
2023-02-11T03:51:07.282Z,102332.34
2023-02-11T03:53:54.123Z,102245.06
2023-02-11T03:56:29.407Z,102320.38
2023-02-11T03:59:01.114Z,102419.13
2023-02-11T04:01:34.525Z,102324.56
2023-02-11T04:04:10.114Z,102343.13
2023-02-11T04:06:49.687Z,102452.47
2023-02-11T04:09:25.609Z,102323.25
2023-02-11T04:12:01.805Z,102506.56
2023-02-11T04:15:00.598Z,102424.53
2023-02-11T04:17:35.539Z,102504.03
2023-02-11T04:20:05.752Z,102177.84
2023-02-11T04:22:39.160Z,102316.13
2023-02-11T04:25:14.038Z,102415.78
2023-02-11T04:27:47.119Z,102406.03
2023-02-11T04:30:21.993Z,102483.66
2023-02-11T04:32:54.650Z,102410.25
2023-02-11T04:35:26.841Z,102154.56
2023-02-11T04:42:17.313Z,102269.16
2023-02-11T04:45:15.417Z,102167.53
2023-02-11T04:48:02.800Z,102135.69
2023-02-11T04:51:50.906Z,102380.31
2023-02-11T04:54:26.587Z,102201.53
2023-02-11T04:58:01.525Z,102442.09
2023-02-11T05:10:35.173Z,102501.03
2023-02-11T05:12:03.359Z,102363.03
2023-02-11T05:14:35.994Z,102460.53
2023-02-11T05:17:05.762Z,102419.16
2023-02-11T05:19:35.568Z,102457.81
2023-02-11T05:22:05.306Z,102375.75
2023-02-11T05:24:35.637Z,102499.03
2023-02-11T05:27:05.334Z,102460.47
2023-02-11T05:29:37.959Z,102489.97
2023-02-11T05:32:09.182Z,102349.72
2023-02-11T05:34:39.344Z,102346.22
2023-02-11T05:37:09.326Z,102460.66
2023-02-11T05:39:39.182Z,102240.56
2023-02-11T05:42:09.161Z,102482.47
2023-02-11T05:44:41.698Z,102386.16
2023-02-11T05:47:11.351Z,102436.44
2023-02-11T05:49:41.139Z,102427.84
2023-02-11T05:52:10.938Z,102294.41
2023-02-11T05:54:40.719Z,102298.69
2023-02-11T05:57:10.405Z,102420.03
2023-02-11T05:59:43.187Z,102459.19
2023-02-11T06:02:13.441Z,102457.00
2023-02-11T06:04:44.433Z,102340.50
2023-02-11T06:07:15.704Z,102477.22
2023-02-11T06:09:46.806Z,102370.59
2023-02-11T06:12:17.041Z,102152.66
2023-02-11T06:14:49.771Z,102294.81
2023-02-11T06:17:19.689Z,102207.53
2023-02-11T06:19:49.582Z,102257.41
2023-02-11T06:22:19.855Z,102324.97
2023-02-11T06:25:00.753Z,102423.53
2023-02-11T06:27:31.556Z,102422.03
2023-02-11T06:30:03.847Z,102467.16
2023-02-11T06:32:49.087Z,102485.00
2023-02-11T06:35:18.988Z,102336.28
2023-02-11T06:37:49.810Z,102446.06
2023-02-11T06:40:19.512Z,102336.09
2023-02-11T06:42:49.288Z,102451.53
2023-02-11T06:45:21.892Z,102489.13
2023-02-11T06:47:54.781Z,102456.72
2023-02-11T06:50:24.891Z,102481.41
2023-02-11T06:52:54.571Z,102484.81
2023-02-11T06:55:24.323Z,102494.31
2023-02-11T06:57:54.218Z,102470.16
2023-02-11T07:00:26.701Z,102508.75
2023-02-11T07:02:56.508Z,102429.09
2023-02-11T07:05:26.324Z,102466.50
2023-02-11T07:07:56.107Z,102488.25
2023-02-11T07:10:25.791Z,102320.38
2023-02-11T07:12:57.758Z,102349.06
2023-02-11T07:15:31.001Z,102347.34
2023-02-11T07:18:01.144Z,102355.53
2023-02-11T07:20:31.029Z,102505.75
2023-02-11T07:23:00.767Z,102458.84
2023-02-11T07:25:30.685Z,102335.50
2023-02-11T07:28:00.972Z,102510.72
2023-02-11T07:30:33.348Z,102444.16
2023-02-11T07:33:03.319Z,102338.75
2023-02-11T07:35:33.132Z,102424.13
2023-02-11T07:38:03.048Z,102420.28
2023-02-11T07:40:33.993Z,102503.88
2023-02-11T07:43:03.957Z,102450.53
2023-02-11T07:45:36.368Z,102337.63
2023-02-11T07:48:06.076Z,102487.06
2023-02-11T07:50:35.858Z,102508.59
2023-02-11T07:53:06.282Z,102479.75
2023-02-11T07:55:36.481Z,102409.38
2023-02-11T07:58:06.964Z,102347.22
2023-02-11T08:00:39.710Z,102540.38
2023-02-11T08:03:09.638Z,102285.97
2023-02-11T08:05:40.843Z,102454.06
2023-02-11T08:08:10.605Z,102476.22
2023-02-11T08:10:40.375Z,102512.97
2023-02-11T08:13:10.139Z,102464.06
2023-02-11T08:15:42.363Z,102555.72
2023-02-11T08:18:12.025Z,102518.13
2023-02-11T08:20:41.764Z,102530.94
2023-02-11T08:23:11.466Z,102532.47
2023-02-11T08:25:41.250Z,102536.94
2023-02-11T08:28:11.334Z,102555.59
2023-02-11T08:30:43.627Z,102513.91
2023-02-11T08:33:13.276Z,102547.97
2023-02-11T08:35:42.932Z,102575.00
2023-02-11T08:38:12.658Z,102575.22
2023-02-11T08:40:42.318Z,102563.69
2023-02-11T08:43:11.939Z,102569.22
2023-02-11T08:45:44.294Z,102515.72
2023-02-11T08:48:13.995Z,102553.72
2023-02-11T08:50:43.652Z,102519.56
2023-02-11T08:53:13.423Z,102561.53
2023-02-11T08:55:43.119Z,102549.63
2023-02-11T08:58:12.826Z,102575.22
2023-02-11T09:00:45.588Z,102582.16
2023-02-11T09:03:16.086Z,102584.97
2023-02-11T09:05:46.684Z,102566.63
2023-02-11T09:08:17.175Z,102474.28
2023-02-11T09:10:47.047Z,102583.44
2023-02-11T09:13:17.022Z,102518.44
2023-02-11T09:15:50.781Z,102576.22
2023-02-11T09:18:20.430Z,102562.25
2023-02-11T09:20:50.420Z,102598.13
2023-02-11T09:23:20.269Z,102565.28
2023-02-11T09:25:50.157Z,102578.94
2023-02-11T09:28:20.108Z,102598.88
2023-02-11T09:30:52.774Z,102610.69
2023-02-11T09:33:22.575Z,102587.81
2023-02-11T09:35:52.254Z,102606.78
2023-02-11T09:38:21.895Z,102598.19
2023-02-11T09:40:51.811Z,102619.38
2023-02-11T09:43:25.350Z,102616.28
2023-02-11T09:45:58.564Z,102592.06
2023-02-11T09:48:28.666Z,102582.59
2023-02-11T09:51:01.737Z,102570.38
2023-02-11T09:53:35.282Z,102596.25
2023-02-11T09:56:13.799Z,102614.91
2023-02-11T09:58:47.264Z,102582.59
2023-02-11T10:01:31.904Z,102590.78
2023-02-11T10:04:10.088Z,102626.47
2023-02-11T10:06:43.695Z,102636.69
2023-02-11T10:09:30.861Z,102645.00
2023-02-11T10:12:14.172Z,102576.53
2023-02-11T10:14:59.698Z,102450.47
2023-02-11T10:17:41.285Z,102591.06
2023-02-11T10:20:23.319Z,102625.16
2023-02-11T10:22:56.181Z,102639.34
2023-02-11T10:25:28.835Z,102597.44
2023-02-11T10:28:02.411Z,102610.72
2023-02-11T10:30:36.278Z,102625.22
2023-02-11T10:33:18.163Z,102634.47
2023-02-11T10:35:47.842Z,102629.09
2023-02-11T10:38:17.547Z,102640.84
2023-02-11T10:40:47.487Z,102630.19
2023-02-11T10:43:20.328Z,102643.66
2023-02-11T10:45:52.648Z,102615.16
2023-02-11T10:48:49.515Z,102625.69
2023-02-11T10:51:24.380Z,102661.81
2023-02-11T10:54:14.532Z,102626.66
2023-02-11T10:56:50.167Z,102629.97
2023-02-11T10:59:26.996Z,102620.59
2023-02-11T11:02:00.758Z,102654.69
2023-02-11T11:04:42.655Z,102660.16
2023-02-11T11:07:15.549Z,102640.91
2023-02-11T11:09:52.567Z,102668.59
2023-02-11T11:12:42.214Z,102659.00
2023-02-11T11:15:22.202Z,102662.03
2023-02-11T11:17:52.531Z,102572.44
2023-02-11T11:20:30.517Z,102648.84
2023-02-11T11:23:16.942Z,102643.66
2023-02-11T11:25:49.129Z,102614.28
2023-02-11T11:28:26.793Z,102665.91
2023-02-11T11:30:59.641Z,102647.72
2023-02-11T11:33:32.456Z,102620.00
2023-02-11T11:36:09.131Z,102664.91
2023-02-11T11:38:45.644Z,102660.06
2023-02-11T11:41:24.155Z,102615.78
2023-02-11T11:44:06.932Z,102612.31
2023-02-11T11:46:39.192Z,102637.00
2023-02-11T11:49:28.631Z,102609.09
2023-02-11T11:52:14.215Z,102660.00
2023-02-11T11:54:48.109Z,102598.38
2023-02-11T11:57:21.321Z,102650.03
2023-02-11T11:59:51.036Z,102640.66
2023-02-11T12:02:43.150Z,102649.91
2023-02-11T12:05:17.379Z,102627.75
2023-02-11T12:08:06.199Z,102614.16
2023-02-11T12:11:05.547Z,102649.91
2023-02-11T12:13:48.248Z,102629.38
2023-02-11T12:16:27.983Z,102668.53
2023-02-11T12:19:30.281Z,102658.53
2023-02-11T12:22:08.000Z,102532.53
2023-02-11T12:24:55.270Z,102636.09
2023-02-11T12:27:40.337Z,102619.56
2023-02-11T12:30:23.724Z,102631.69
2023-02-11T12:33:03.351Z,102629.09
2023-02-11T12:35:45.901Z,102648.72
2023-02-11T12:38:31.383Z,102643.94
2023-02-11T12:41:19.094Z,102637.09
2023-02-11T12:43:46.364Z,102590.25
2023-02-11T12:46:41.374Z,102563.31
2023-02-11T12:49:23.893Z,102678.88
2023-02-11T12:52:13.684Z,102600.19
2023-02-11T12:54:48.802Z,102645.38
2023-02-11T12:57:26.142Z,102567.78
2023-02-11T13:00:07.809Z,102690.88
2023-02-11T13:02:44.134Z,102672.59
2023-02-11T13:05:34.581Z,102648.56
2023-02-11T13:08:08.727Z,102630.03
2023-02-11T13:10:41.018Z,102522.25
2023-02-11T13:13:21.078Z,102660.81
2023-02-11T13:15:54.650Z,102669.31
2023-02-11T13:18:52.352Z,102586.75
2023-02-11T13:21:36.627Z,102632.78
2023-02-11T13:24:17.032Z,102647.47
2023-02-11T13:26:54.262Z,102664.50
2023-02-11T13:29:36.044Z,102661.34
2023-02-11T13:32:11.338Z,102628.59
2023-02-11T13:34:57.112Z,102669.19
2023-02-11T13:37:29.261Z,102667.84
2023-02-11T13:40:01.045Z,102573.00
2023-02-11T13:42:31.670Z,102542.75
2023-02-11T13:45:04.411Z,102670.75
2023-02-11T13:47:36.913Z,102667.47
2023-02-11T13:50:11.290Z,102617.66
2023-02-11T13:52:42.826Z,102633.00
2023-02-11T13:55:24.460Z,102661.94
2023-02-11T13:58:36.609Z,102588.75
2023-02-11T14:01:10.125Z,102641.34
2023-02-11T14:03:54.646Z,102616.66
2023-02-11T14:06:44.014Z,102489.69
2023-02-11T14:09:57.393Z,102623.88
2023-02-11T14:12:37.676Z,102666.31
2023-02-11T14:15:24.293Z,102566.91
2023-02-11T14:17:56.686Z,102685.41
2023-02-11T14:24:41.389Z,102523.31
2023-02-11T14:27:20.857Z,102677.50
2023-02-11T14:30:16.392Z,102694.69
2023-02-11T14:33:10.476Z,102501.19
2023-02-11T14:35:48.453Z,102536.50
2023-02-11T14:38:26.956Z,102598.97
2023-02-11T14:41:07.333Z,102556.44
2023-02-11T14:43:42.082Z,102536.13
2023-02-11T14:46:41.988Z,102692.00
2023-02-11T14:49:28.882Z,102486.94
2023-02-11T14:52:27.995Z,102575.59
2023-02-11T14:55:24.954Z,102634.69
2023-02-11T14:58:28.405Z,102701.13
2023-02-11T15:01:30.942Z,102465.25
2023-02-11T15:04:05.568Z,102718.09
2023-02-11T15:22:28.907Z,102371.38
2023-02-11T15:25:17.679Z,102647.59
2023-02-11T15:28:06.410Z,102639.13
2023-02-11T15:30:36.749Z,102537.63
2023-02-11T15:33:10.040Z,102662.44
2023-02-11T15:35:43.071Z,102760.31
2023-02-11T15:38:16.682Z,102655.72
2023-02-11T15:40:57.052Z,102712.13
2023-02-11T15:46:40.745Z,102780.09
2023-02-11T15:49:21.785Z,102591.22
2023-02-11T15:51:52.444Z,102615.88
2023-02-11T15:54:29.624Z,102580.94
2023-02-11T15:57:05.885Z,102690.31
2023-02-11T15:59:43.616Z,102572.16
2023-02-11T16:02:22.518Z,102756.16
2023-02-11T16:04:55.053Z,102582.84
2023-02-11T16:07:42.300Z,102728.38
2023-02-11T16:10:27.671Z,102762.75
2023-02-11T16:13:04.557Z,102596.13
2023-02-11T16:15:47.002Z,102700.97
2023-02-11T16:18:37.885Z,102716.75
2023-02-11T16:21:16.741Z,102654.41
2023-02-11T16:23:56.636Z,102720.88
2023-02-11T16:38:12.128Z,102695.75
2023-02-11T16:40:44.581Z,102719.75
2023-02-11T16:43:18.068Z,102692.25
2023-02-11T16:45:48.511Z,102763.97
2023-02-11T16:48:22.145Z,102602.59
2023-02-11T16:50:53.742Z,102674.34
2023-02-11T16:53:37.079Z,102419.84
2023-02-11T16:56:20.409Z,102596.47
2023-02-11T16:58:59.197Z,102780.59
2023-02-11T17:01:29.303Z,102673.09
2023-02-11T17:03:59.247Z,102716.28
2023-02-11T17:06:30.334Z,102746.47
2023-02-11T17:09:00.128Z,102747.75
2023-02-11T17:11:29.962Z,102782.94
2023-02-11T17:14:02.442Z,102737.00
2023-02-11T17:16:32.672Z,102675.47
2023-02-11T17:19:02.517Z,102773.34
2023-02-11T17:21:32.469Z,102779.56
2023-02-11T17:24:02.284Z,102787.38
2023-02-11T17:26:32.086Z,102778.03
2023-02-11T17:29:04.679Z,102762.75
2023-02-11T17:31:34.517Z,102771.72
2023-02-11T17:34:05.708Z,102790.81
2023-02-11T17:36:36.726Z,102790.25
2023-02-11T17:39:08.477Z,102785.72
2023-02-11T17:41:39.830Z,102773.72
2023-02-11T17:44:16.485Z,102797.19
2023-02-11T17:46:46.491Z,102806.16
2023-02-11T17:49:16.454Z,102798.22
2023-02-11T17:51:46.170Z,102787.25
2023-02-11T17:54:18.257Z,102803.31
2023-02-11T17:56:50.892Z,102777.25
2023-02-11T17:59:23.704Z,102771.78
2023-02-11T18:01:53.408Z,102800.69
2023-02-11T18:04:23.097Z,102806.41
2023-02-11T18:06:53.767Z,102832.78
2023-02-11T18:09:23.542Z,102835.91
2023-02-11T18:11:53.496Z,102834.66
2023-02-11T18:14:25.813Z,102789.50
2023-02-11T18:16:55.896Z,102843.56
2023-02-11T18:19:25.610Z,102847.50
2023-02-11T18:21:55.274Z,102854.63
2023-02-11T18:24:26.462Z,102834.69
2023-02-11T18:26:56.117Z,102850.53
2023-02-11T18:29:28.338Z,102856.41
2023-02-11T18:31:59.360Z,102861.91
2023-02-11T18:34:29.256Z,102836.38
2023-02-11T18:36:58.867Z,102863.84
2023-02-11T18:39:28.526Z,102852.50
2023-02-11T18:41:59.722Z,102872.38
2023-02-11T18:44:32.139Z,102729.28
2023-02-11T18:47:01.780Z,102860.34
2023-02-11T18:49:33.074Z,102847.56
2023-02-11T18:52:02.732Z,102873.75
2023-02-11T18:54:32.420Z,102876.50
2023-02-11T18:57:02.048Z,102874.13
2023-02-11T18:59:34.287Z,102859.28
2023-02-11T19:02:03.902Z,102863.53
2023-02-11T19:04:33.556Z,102702.84
2023-02-11T19:07:04.322Z,102844.03
2023-02-11T19:09:34.122Z,102884.06
2023-02-11T19:12:04.724Z,102836.91
2023-02-11T19:14:38.677Z,102888.84
2023-02-11T19:17:12.178Z,102887.97
2023-02-11T19:19:41.886Z,102885.72
2023-02-11T19:22:11.821Z,102900.50
2023-02-11T19:24:41.832Z,102892.47
2023-02-11T19:27:12.501Z,102902.44
2023-02-11T19:29:44.708Z,102888.84
2023-02-11T19:32:15.793Z,102874.75
2023-02-11T19:34:45.484Z,102907.88
2023-02-11T19:37:15.599Z,102892.84
2023-02-11T19:39:46.321Z,102887.28
2023-02-11T19:42:16.131Z,102879.84
2023-02-11T19:44:48.508Z,102887.59
2023-02-11T19:47:18.301Z,102891.97
2023-02-11T19:49:48.185Z,102900.03
2023-02-11T19:52:17.843Z,102860.97
2023-02-11T19:54:47.570Z,102890.53
2023-02-11T19:57:17.295Z,102884.88
2023-02-11T19:59:49.628Z,102908.34
2023-02-11T20:02:19.328Z,102882.50
2023-02-11T20:04:49.138Z,102858.22
2023-02-11T20:07:18.845Z,102898.63
2023-02-11T20:09:48.508Z,102904.66
2023-02-11T20:12:18.284Z,102925.41
2023-02-11T20:14:50.526Z,102901.34
2023-02-11T20:17:20.163Z,102914.63
2023-02-11T20:19:49.948Z,102885.50
2023-02-11T20:22:19.555Z,102922.53
2023-02-11T20:24:49.200Z,102874.16
2023-02-11T20:27:20.139Z,102893.81
2023-02-11T20:29:52.634Z,102885.56
2023-02-11T20:32:22.354Z,102874.81
2023-02-11T20:34:52.688Z,102916.78
2023-02-11T20:37:22.341Z,102931.28
2023-02-11T20:39:51.978Z,102902.81
2023-02-11T20:42:21.622Z,102936.16
2023-02-11T20:44:53.997Z,102939.69
2023-02-11T20:47:23.663Z,102905.09
2023-02-11T20:49:53.422Z,102930.91
2023-02-11T20:52:23.057Z,102942.41
2023-02-11T20:54:52.696Z,102940.38
2023-02-11T20:57:22.412Z,102942.84
2023-02-11T20:59:55.011Z,102915.84
2023-02-11T21:02:25.016Z,102929.03
2023-02-11T21:04:54.699Z,102950.78
2023-02-11T21:07:24.468Z,102859.88
2023-02-11T21:09:54.086Z,102911.56
2023-02-11T21:12:24.008Z,102951.56
2023-02-11T21:14:58.000Z,102950.88
2023-02-11T21:17:28.028Z,102962.16
2023-02-11T21:19:57.635Z,102919.94
2023-02-11T21:22:27.344Z,102959.09
2023-02-11T21:24:57.011Z,102891.59
2023-02-11T21:27:32.207Z,102975.19
2023-02-11T21:30:04.924Z,102905.09
2023-02-11T21:32:34.561Z,102923.09
2023-02-11T21:35:04.220Z,102935.94
2023-02-11T21:37:33.879Z,102960.88
2023-02-11T21:40:03.608Z,102956.00
2023-02-11T21:42:33.200Z,102989.59
2023-02-11T21:45:05.634Z,102965.56
2023-02-11T21:47:35.435Z,102974.22
2023-02-11T21:50:05.270Z,102981.44
2023-02-11T21:52:34.969Z,102977.53
2023-02-11T21:55:04.679Z,102976.75
2023-02-11T21:57:34.432Z,102966.28
2023-02-11T22:00:07.763Z,103003.41
2023-02-11T22:02:40.256Z,102971.00
2023-02-11T22:05:11.218Z,103013.22
2023-02-11T22:07:40.939Z,102975.97
2023-02-11T22:10:12.181Z,103006.94
2023-02-11T22:12:41.948Z,103018.50
2023-02-11T22:15:15.070Z,103026.16
2023-02-11T22:17:44.767Z,103002.81
2023-02-11T22:20:16.641Z,102972.25
2023-02-11T22:22:46.406Z,102969.53
2023-02-11T22:25:16.184Z,103031.94
2023-02-11T22:27:45.896Z,103021.34
2023-02-11T22:30:19.469Z,102897.31
2023-02-11T22:32:52.597Z,102896.03
2023-02-11T22:35:28.606Z,102909.56
2023-02-11T22:37:58.940Z,102894.09
2023-02-11T22:40:29.370Z,102959.06
2023-02-11T22:42:59.603Z,103023.09
2023-02-11T22:45:34.827Z,102911.31
2023-02-11T22:48:04.819Z,102977.56
2023-02-11T22:50:52.221Z,103072.00
2023-02-11T22:53:25.675Z,103060.63
2023-02-11T22:55:56.030Z,102786.56
2023-02-11T22:58:27.322Z,103031.41
2023-02-11T23:00:59.945Z,102894.19
2023-02-11T23:03:29.956Z,103023.69
2023-02-11T23:06:01.712Z,102982.75
2023-02-11T23:08:33.070Z,102961.16
2023-02-11T23:11:07.840Z,102995.78
2023-02-11T23:13:40.113Z,102943.13
2023-02-11T23:16:15.290Z,102977.47
2023-02-11T23:18:46.949Z,102967.50
2023-02-11T23:21:21.314Z,103019.78
2023-02-11T23:23:56.168Z,103082.56
2023-02-11T23:26:26.265Z,103033.59
2023-02-11T23:28:56.397Z,103062.97
2023-02-11T23:31:30.755Z,103018.19
2023-02-11T23:34:00.551Z,102982.97
2023-02-11T23:36:30.741Z,103083.47
2023-02-11T23:39:00.901Z,103060.03
2023-02-11T23:41:30.936Z,102996.94
2023-02-11T23:44:01.215Z,103028.56
2023-02-11T23:46:33.684Z,103068.09
2023-02-11T23:49:03.502Z,102928.22
2023-02-11T23:51:33.538Z,103010.06
2023-02-11T23:54:03.951Z,103095.59
2023-02-11T23:56:33.811Z,103006.16
2023-02-11T23:59:03.633Z,103046.31
